Terminal Aerodrome Forecast
Issued by NWS Newport/Morehead City, NC

Home | Current Version | Previous Version | Graphics & Text | Print | Product List | Glossary On
Versions: 1 2 3 4 5 6 7 8 9 10 11 12 13 14 15 16
000
FTUS42 KMHX 271740
TAFEWN
TAF
KEWN 271740Z 2718/2818 02011KT 6SM -RA OVC007
      TEMPO 2720/2723 3SM BR
     FM280500 35008KT P6SM OVC015
     FM281400 32011KT P6SM OVC040=

USA.gov is the U.S. government's official web portal to all federal, state and local government web resources and services.